Faith, North Carolina
Current Conditions -  °F | °C
As of 7:15 AM on Sunday 23 Nov 2014 (Local Time) from KRUQ Reporting Station
Broken Clouds Broken Clouds  
Wind Chill: 42°   Ceiling: 12000
Heat Index: 42°   Visibility: 10mi
Dew Point: 29°   Wind: 0mph
Humidity: 60%   Direction: NA
Pressure: 30.23"   Gusts: NA
Location:  35.59°N, 80.46°W
Report Text: KRUQ 231215Z AUTO 00000KT 10SM SCT009 BKN120 06/M02 A3023 RMK AO2 T00551018
Loading
Personal Weather Stations






























Interactive Weather Map New forecast layout! Learn more

10-Day Weather Forecast

Advertisements
Track Severe Weather on mobile